sensor_id;sensor_type;location;lat;lon;timestamp;temperature;humidity
12470;DHT22;36499;46.484;13.832;2023-06-14T00:02:21;14.20;99.90
12470;DHT22;36499;46.484;13.832;2023-06-14T00:04:48;14.20;99.90
12470;DHT22;36499;46.484;13.832;2023-06-14T00:07:18;14.10;99.90
12470;DHT22;36499;46.484;13.832;2023-06-14T00:09:45;14.10;99.90
12470;DHT22;36499;46.484;13.832;2023-06-14T00:12:12;14.10;99.90
12470;DHT22;36499;46.484;13.832;2023-06-14T00:14:40;14.10;99.90
12470;DHT22;36499;46.484;13.832;2023-06-14T00:17:07;14.10;99.90
12470;DHT22;36499;46.484;13.832;2023-06-14T00:19:35;14.10;99.90
12470;DHT22;36499;46.484;13.832;2023-06-14T00:22:02;14.10;99.90
12470;DHT22;36499;46.484;13.832;2023-06-14T00:24:29;14.10;99.90
12470;DHT22;36499;46.484;13.832;2023-06-14T00:26:56;14.10;99.90
12470;DHT22;36499;46.484;13.832;2023-06-14T00:29:23;14.10;99.90
12470;DHT22;36499;46.484;13.832;2023-06-14T00:31:52;14.10;99.90
12470;DHT22;36499;46.484;13.832;2023-06-14T00:34:19;14.10;99.90
12470;DHT22;36499;46.484;13.832;2023-06-14T00:36:46;14.00;99.90
12470;DHT22;36499;46.484;13.832;2023-06-14T00:39:13;14.00;99.90
12470;DHT22;36499;46.484;13.832;2023-06-14T00:41:40;13.90;99.90
12470;DHT22;36499;46.484;13.832;2023-06-14T00:44:07;13.90;99.90
12470;DHT22;36499;46.484;13.832;2023-06-14T00:46:34;13.90;99.90
12470;DHT22;36499;46.484;13.832;2023-06-14T00:49:03;13.90;99.90
12470;DHT22;36499;46.484;13.832;2023-06-14T00:51:30;13.90;99.90
12470;DHT22;36499;46.484;13.832;2023-06-14T00:53:57;13.80;99.90
12470;DHT22;36499;46.484;13.832;2023-06-14T00:56:24;13.80;99.90
12470;DHT22;36499;46.484;13.832;2023-06-14T00:58:53;13.70;99.90
12470;DHT22;36499;46.484;13.832;2023-06-14T01:01:20;13.70;99.90
12470;DHT22;36499;46.484;13.832;2023-06-14T01:03:47;13.70;99.90
12470;DHT22;36499;46.484;13.832;2023-06-14T01:06:21;13.70;99.90
12470;DHT22;36499;46.484;13.832;2023-06-14T01:09:03;13.60;99.90
12470;DHT22;36499;46.484;13.832;2023-06-14T01:11:43;13.60;99.90
12470;DHT22;36499;46.484;13.832;2023-06-14T01:14:17;13.60;99.90
12470;DHT22;36499;46.484;13.832;2023-06-14T01:16:45;13.60;99.90
12470;DHT22;36499;46.484;13.832;2023-06-14T01:19:16;13.50;99.90
12470;DHT22;36499;46.484;13.832;2023-06-14T01:21:44;13.50;99.90
12470;DHT22;36499;46.484;13.832;2023-06-14T01:24:18;13.40;99.90
12470;DHT22;36499;46.484;13.832;2023-06-14T01:26:49;13.40;99.90
12470;DHT22;36499;46.484;13.832;2023-06-14T01:29:22;13.30;99.90
12470;DHT22;36499;46.484;13.832;2023-06-14T01:31:51;13.20;99.90
12470;DHT22;36499;46.484;13.832;2023-06-14T01:34:19;13.20;99.90
12470;DHT22;36499;46.484;13.832;2023-06-14T01:36:47;13.10;99.90
12470;DHT22;36499;46.484;13.832;2023-06-14T01:39:18;13.10;99.90
12470;DHT22;36499;46.484;13.832;2023-06-14T01:41:47;13.10;99.90
12470;DHT22;36499;46.484;13.832;2023-06-14T01:44:17;13.00;99.90
12470;DHT22;36499;46.484;13.832;2023-06-14T01:46:45;13.00;99.90
12470;DHT22;36499;46.484;13.832;2023-06-14T01:49:13;13.10;99.90
12470;DHT22;36499;46.484;13.832;2023-06-14T01:51:40;13.10;99.90
12470;DHT22;36499;46.484;13.832;2023-06-14T01:54:07;13.10;99.90
12470;DHT22;36499;46.484;13.832;2023-06-14T01:56:35;13.10;99.90
12470;DHT22;36499;46.484;13.832;2023-06-14T01:59:02;13.10;99.90
12470;DHT22;36499;46.484;13.832;2023-06-14T02:01:29;13.10;99.90
12470;DHT22;36499;46.484;13.832;2023-06-14T02:03:56;13.20;99.90
12470;DHT22;36499;46.484;13.832;2023-06-14T02:06:26;13.20;99.90
12470;DHT22;36499;46.484;13.832;2023-06-14T02:08:53;13.20;99.90
12470;DHT22;36499;46.484;13.832;2023-06-14T02:11:20;13.20;99.90
12470;DHT22;36499;46.484;13.832;2023-06-14T02:13:48;13.20;99.90
12470;DHT22;36499;46.484;13.832;2023-06-14T02:16:16;13.20;99.90
12470;DHT22;36499;46.484;13.832;2023-06-14T02:18:43;13.20;99.90
12470;DHT22;36499;46.484;13.832;2023-06-14T02:21:10;13.20;99.90
12470;DHT22;36499;46.484;13.832;2023-06-14T02:23:38;13.20;99.90
12470;DHT22;36499;46.484;13.832;2023-06-14T02:26:05;13.20;99.90
12470;DHT22;36499;46.484;13.832;2023-06-14T02:28:32;13.20;99.90
12470;DHT22;36499;46.484;13.832;2023-06-14T02:31:02;13.20;99.90
12470;DHT22;36499;46.484;13.832;2023-06-14T02:33:29;13.20;99.90
12470;DHT22;36499;46.484;13.832;2023-06-14T02:35:56;13.10;99.90
12470;DHT22;36499;46.484;13.832;2023-06-14T02:38:23;13.10;99.90
12470;DHT22;36499;46.484;13.832;2023-06-14T02:40:50;13.00;99.90
12470;DHT22;36499;46.484;13.832;2023-06-14T02:43:17;12.90;99.90
12470;DHT22;36499;46.484;13.832;2023-06-14T02:45:45;12.80;99.90
12470;DHT22;36499;46.484;13.832;2023-06-14T02:48:13;12.80;99.90
12470;DHT22;36499;46.484;13.832;2023-06-14T02:50:40;12.80;99.90
12470;DHT22;36499;46.484;13.832;2023-06-14T02:53:07;12.80;99.90
12470;DHT22;36499;46.484;13.832;2023-06-14T02:55:34;12.80;99.90
12470;DHT22;36499;46.484;13.832;2023-06-14T02:58:05;12.80;99.90
12470;DHT22;36499;46.484;13.832;2023-06-14T03:00:32;12.80;99.90
12470;DHT22;36499;46.484;13.832;2023-06-14T03:03:00;12.90;99.90
12470;DHT22;36499;46.484;13.832;2023-06-14T03:05:29;12.90;99.90
12470;DHT22;36499;46.484;13.832;2023-06-14T03:07:56;12.90;99.90
12470;DHT22;36499;46.484;13.832;2023-06-14T03:10:23;12.80;99.90
12470;DHT22;36499;46.484;13.832;2023-06-14T03:12:54;12.90;99.90
12470;DHT22;36499;46.484;13.832;2023-06-14T03:15:21;12.80;99.90
12470;DHT22;36499;46.484;13.832;2023-06-14T03:17:50;12.80;99.90
12470;DHT22;36499;46.484;13.832;2023-06-14T03:20:19;12.80;99.90
12470;DHT22;36499;46.484;13.832;2023-06-14T03:22:47;12.80;99.90
12470;DHT22;36499;46.484;13.832;2023-06-14T03:25:14;12.80;99.90
12470;DHT22;36499;46.484;13.832;2023-06-14T03:27:42;12.80;99.90
12470;DHT22;36499;46.484;13.832;2023-06-14T03:30:09;12.80;99.90
12470;DHT22;36499;46.484;13.832;2023-06-14T03:32:37;12.80;99.90
12470;DHT22;36499;46.484;13.832;2023-06-14T03:35:04;12.80;99.90
12470;DHT22;36499;46.484;13.832;2023-06-14T03:37:32;12.80;99.90
12470;DHT22;36499;46.484;13.832;2023-06-14T03:40:01;12.90;99.90
12470;DHT22;36499;46.484;13.832;2023-06-14T03:42:31;12.80;99.90
12470;DHT22;36499;46.484;13.832;2023-06-14T03:44:58;12.80;99.90
12470;DHT22;36499;46.484;13.832;2023-06-14T03:47:25;12.80;99.90
12470;DHT22;36499;46.484;13.832;2023-06-14T03:49:53;12.90;99.90
12470;DHT22;36499;46.484;13.832;2023-06-14T03:52:20;12.90;99.90
12470;DHT22;36499;46.484;13.832;2023-06-14T03:54:48;12.80;99.90
12470;DHT22;36499;46.484;13.832;2023-06-14T03:57:17;12.80;99.90
12470;DHT22;36499;46.484;13.832;2023-06-14T03:59:45;12.80;99.90
12470;DHT22;36499;46.484;13.832;2023-06-14T04:02:13;12.80;99.90
12470;DHT22;36499;46.484;13.832;2023-06-14T04:04:41;12.80;99.90
12470;DHT22;36499;46.484;13.832;2023-06-14T04:07:09;12.90;99.90
12470;DHT22;36499;46.484;13.832;2023-06-14T04:09:37;12.90;99.90
12470;DHT22;36499;46.484;13.832;2023-06-14T04:12:05;12.90;99.90
12470;DHT22;36499;46.484;13.832;2023-06-14T04:14:35;12.90;99.90
12470;DHT22;36499;46.484;13.832;2023-06-14T04:17:02;12.80;99.90
12470;DHT22;36499;46.484;13.832;2023-06-14T04:19:30;12.90;99.90
12470;DHT22;36499;46.484;13.832;2023-06-14T04:21:57;12.90;99.90
12470;DHT22;36499;46.484;13.832;2023-06-14T04:24:26;12.80;99.90
12470;DHT22;36499;46.484;13.832;2023-06-14T04:26:58;12.80;99.90
12470;DHT22;36499;46.484;13.832;2023-06-14T04:29:26;12.90;99.90
12470;DHT22;36499;46.484;13.832;2023-06-14T04:31:56;12.90;99.90
12470;DHT22;36499;46.484;13.832;2023-06-14T04:34:26;12.90;99.90
12470;DHT22;36499;46.484;13.832;2023-06-14T04:36:55;12.90;99.90
12470;DHT22;36499;46.484;13.832;2023-06-14T04:39:24;13.00;99.90
12470;DHT22;36499;46.484;13.832;2023-06-14T04:41:51;13.00;99.90
12470;DHT22;36499;46.484;13.832;2023-06-14T04:44:22;13.00;99.90
12470;DHT22;36499;46.484;13.832;2023-06-14T04:46:57;13.00;99.90
12470;DHT22;36499;46.484;13.832;2023-06-14T04:49:24;13.00;99.90
12470;DHT22;36499;46.484;13.832;2023-06-14T04:51:52;13.00;99.90
12470;DHT22;36499;46.484;13.832;2023-06-14T04:54:23;13.00;99.90
12470;DHT22;36499;46.484;13.832;2023-06-14T04:56:51;13.10;99.90
12470;DHT22;36499;46.484;13.832;2023-06-14T04:59:20;13.20;99.90
12470;DHT22;36499;46.484;13.832;2023-06-14T05:01:48;13.30;99.90
12470;DHT22;36499;46.484;13.832;2023-06-14T05:04:18;13.30;99.90
12470;DHT22;36499;46.484;13.832;2023-06-14T05:06:46;13.50;99.90
12470;DHT22;36499;46.484;13.832;2023-06-14T05:09:15;13.50;99.90
12470;DHT22;36499;46.484;13.832;2023-06-14T05:11:42;13.60;99.90
12470;DHT22;36499;46.484;13.832;2023-06-14T05:14:10;13.70;99.90
12470;DHT22;36499;46.484;13.832;2023-06-14T05:16:37;13.80;99.90
12470;DHT22;36499;46.484;13.832;2023-06-14T05:19:04;13.90;99.90
12470;DHT22;36499;46.484;13.832;2023-06-14T05:21:32;13.90;99.90
12470;DHT22;36499;46.484;13.832;2023-06-14T05:24:00;14.00;99.90
12470;DHT22;36499;46.484;13.832;2023-06-14T05:26:28;14.00;99.90
12470;DHT22;36499;46.484;13.832;2023-06-14T05:28:55;14.00;99.90
12470;DHT22;36499;46.484;13.832;2023-06-14T05:31:23;14.10;99.90
12470;DHT22;36499;46.484;13.832;2023-06-14T05:33:51;14.20;99.90
12470;DHT22;36499;46.484;13.832;2023-06-14T05:36:19;14.20;99.90
12470;DHT22;36499;46.484;13.832;2023-06-14T05:38:48;14.30;99.90
12470;DHT22;36499;46.484;13.832;2023-06-14T05:41:16;14.40;99.90
12470;DHT22;36499;46.484;13.832;2023-06-14T05:43:43;14.50;99.90
12470;DHT22;36499;46.484;13.832;2023-06-14T05:46:10;14.60;99.90
12470;DHT22;36499;46.484;13.832;2023-06-14T05:48:37;14.70;99.90
12470;DHT22;36499;46.484;13.832;2023-06-14T05:51:04;14.80;99.90
12470;DHT22;36499;46.484;13.832;2023-06-14T05:53:34;14.80;99.90
12470;DHT22;36499;46.484;13.832;2023-06-14T05:56:03;14.70;99.90
12470;DHT22;36499;46.484;13.832;2023-06-14T05:58:30;14.60;99.90
12470;DHT22;36499;46.484;13.832;2023-06-14T06:00:57;14.60;99.90
12470;DHT22;36499;46.484;13.832;2023-06-14T06:03:24;14.50;99.90
12470;DHT22;36499;46.484;13.832;2023-06-14T06:05:54;14.50;99.90
12470;DHT22;36499;46.484;13.832;2023-06-14T06:08:21;14.40;99.90
12470;DHT22;36499;46.484;13.832;2023-06-14T06:10:48;14.40;99.90
12470;DHT22;36499;46.484;13.832;2023-06-14T06:13:17;14.40;99.90
12470;DHT22;36499;46.484;13.832;2023-06-14T06:15:44;14.40;99.90
12470;DHT22;36499;46.484;13.832;2023-06-14T06:18:12;14.40;99.90
12470;DHT22;36499;46.484;13.832;2023-06-14T06:20:39;14.50;99.90
12470;DHT22;36499;46.484;13.832;2023-06-14T06:23:06;14.60;99.90
12470;DHT22;36499;46.484;13.832;2023-06-14T06:25:33;14.60;99.90
12470;DHT22;36499;46.484;13.832;2023-06-14T06:28:00;14.80;99.90
12470;DHT22;36499;46.484;13.832;2023-06-14T06:30:29;14.80;99.90
12470;DHT22;36499;46.484;13.832;2023-06-14T06:32:55;14.90;99.90
12470;DHT22;36499;46.484;13.832;2023-06-14T06:35:23;15.00;99.90
12470;DHT22;36499;46.484;13.832;2023-06-14T06:37:50;15.00;99.90
12470;DHT22;36499;46.484;13.832;2023-06-14T06:40:17;15.00;99.90
12470;DHT22;36499;46.484;13.832;2023-06-14T06:42:44;15.00;99.90
12470;DHT22;36499;46.484;13.832;2023-06-14T06:45:11;14.90;99.90
12470;DHT22;36499;46.484;13.832;2023-06-14T06:47:39;15.00;99.90
12470;DHT22;36499;46.484;13.832;2023-06-14T06:50:07;14.90;99.90
12470;DHT22;36499;46.484;13.832;2023-06-14T06:52:34;14.80;99.90
12470;DHT22;36499;46.484;13.832;2023-06-14T06:55:02;14.70;99.90
12470;DHT22;36499;46.484;13.832;2023-06-14T06:57:29;14.60;99.90
12470;DHT22;36499;46.484;13.832;2023-06-14T06:59:57;14.50;99.90
12470;DHT22;36499;46.484;13.832;2023-06-14T07:02:24;14.40;99.90
12470;DHT22;36499;46.484;13.832;2023-06-14T07:04:52;14.40;99.90
12470;DHT22;36499;46.484;13.832;2023-06-14T07:07:20;14.30;99.90
12470;DHT22;36499;46.484;13.832;2023-06-14T07:09:47;14.30;99.90
12470;DHT22;36499;46.484;13.832;2023-06-14T07:12:14;14.30;99.90
12470;DHT22;36499;46.484;13.832;2023-06-14T07:14:41;14.20;99.90
12470;DHT22;36499;46.484;13.832;2023-06-14T07:17:09;14.20;99.90
12470;DHT22;36499;46.484;13.832;2023-06-14T07:19:36;14.10;99.90
12470;DHT22;36499;46.484;13.832;2023-06-14T07:22:04;14.10;99.90
12470;DHT22;36499;46.484;13.832;2023-06-14T07:24:31;14.10;99.90
12470;DHT22;36499;46.484;13.832;2023-06-14T07:27:00;14.10;99.90
12470;DHT22;36499;46.484;13.832;2023-06-14T07:29:28;14.10;99.90
12470;DHT22;36499;46.484;13.832;2023-06-14T07:31:55;14.10;99.90
12470;DHT22;36499;46.484;13.832;2023-06-14T07:34:22;14.10;99.90
12470;DHT22;36499;46.484;13.832;2023-06-14T07:36:49;14.10;99.90
12470;DHT22;36499;46.484;13.832;2023-06-14T07:39:18;14.10;99.90
12470;DHT22;36499;46.484;13.832;2023-06-14T07:41:45;14.10;99.90
12470;DHT22;36499;46.484;13.832;2023-06-14T07:44:12;14.20;99.90
12470;DHT22;36499;46.484;13.832;2023-06-14T07:46:39;14.20;99.90
12470;DHT22;36499;46.484;13.832;2023-06-14T07:49:06;14.20;99.90
12470;DHT22;36499;46.484;13.832;2023-06-14T07:51:33;14.20;99.90
12470;DHT22;36499;46.484;13.832;2023-06-14T07:54:00;14.30;99.90
12470;DHT22;36499;46.484;13.832;2023-06-14T07:56:29;14.30;99.90
12470;DHT22;36499;46.484;13.832;2023-06-14T07:58:56;14.30;99.90
12470;DHT22;36499;46.484;13.832;2023-06-14T08:01:23;14.40;99.90
12470;DHT22;36499;46.484;13.832;2023-06-14T08:03:51;14.40;99.90
12470;DHT22;36499;46.484;13.832;2023-06-14T08:06:18;14.40;99.90
12470;DHT22;36499;46.484;13.832;2023-06-14T08:08:45;14.50;99.90
12470;DHT22;36499;46.484;13.832;2023-06-14T08:11:12;14.50;99.90
12470;DHT22;36499;46.484;13.832;2023-06-14T08:13:41;14.50;99.90
12470;DHT22;36499;46.484;13.832;2023-06-14T08:16:08;14.40;99.90
12470;DHT22;36499;46.484;13.832;2023-06-14T08:18:36;14.50;99.90
12470;DHT22;36499;46.484;13.832;2023-06-14T08:21:03;14.40;99.90
12470;DHT22;36499;46.484;13.832;2023-06-14T08:23:30;14.40;99.90
12470;DHT22;36499;46.484;13.832;2023-06-14T08:25:57;14.40;99.90
12470;DHT22;36499;46.484;13.832;2023-06-14T08:28:27;14.30;99.90
12470;DHT22;36499;46.484;13.832;2023-06-14T08:30:55;14.30;99.90
12470;DHT22;36499;46.484;13.832;2023-06-14T08:33:22;14.30;99.90
12470;DHT22;36499;46.484;13.832;2023-06-14T08:35:49;14.20;99.90
12470;DHT22;36499;46.484;13.832;2023-06-14T08:38:16;14.20;99.90
12470;DHT22;36499;46.484;13.832;2023-06-14T08:40:45;14.20;99.90
12470;DHT22;36499;46.484;13.832;2023-06-14T08:43:16;14.20;99.90
12470;DHT22;36499;46.484;13.832;2023-06-14T08:45:45;14.30;99.90
12470;DHT22;36499;46.484;13.832;2023-06-14T08:48:18;14.30;99.90
12470;DHT22;36499;46.484;13.832;2023-06-14T08:50:47;14.30;99.90
12470;DHT22;36499;46.484;13.832;2023-06-14T08:53:16;14.30;99.90
12470;DHT22;36499;46.484;13.832;2023-06-14T08:55:46;14.40;99.90
12470;DHT22;36499;46.484;13.832;2023-06-14T08:58:15;14.40;99.90
12470;DHT22;36499;46.484;13.832;2023-06-14T09:00:43;14.60;99.90
12470;DHT22;36499;46.484;13.832;2023-06-14T09:03:11;14.60;99.90
12470;DHT22;36499;46.484;13.832;2023-06-14T09:05:41;14.60;99.90
12470;DHT22;36499;46.484;13.832;2023-06-14T09:08:09;14.60;99.90
12470;DHT22;36499;46.484;13.832;2023-06-14T09:10:36;14.60;99.90
12470;DHT22;36499;46.484;13.832;2023-06-14T09:13:03;14.70;99.90
12470;DHT22;36499;46.484;13.832;2023-06-14T09:15:31;14.70;99.90
12470;DHT22;36499;46.484;13.832;2023-06-14T09:17:58;14.80;99.90
12470;DHT22;36499;46.484;13.832;2023-06-14T09:20:29;14.90;99.90
12470;DHT22;36499;46.484;13.832;2023-06-14T09:22:58;14.90;99.90
12470;DHT22;36499;46.484;13.832;2023-06-14T09:25:27;14.80;99.90
12470;DHT22;36499;46.484;13.832;2023-06-14T09:27:54;14.90;99.90
12470;DHT22;36499;46.484;13.832;2023-06-14T09:30:21;14.90;99.90
12470;DHT22;36499;46.484;13.832;2023-06-14T09:32:48;14.90;99.90
12470;DHT22;36499;46.484;13.832;2023-06-14T09:35:17;14.90;99.90
12470;DHT22;36499;46.484;13.832;2023-06-14T09:37:45;14.90;99.90
12470;DHT22;36499;46.484;13.832;2023-06-14T09:40:13;14.90;99.90
12470;DHT22;36499;46.484;13.832;2023-06-14T09:42:47;15.00;99.90
12470;DHT22;36499;46.484;13.832;2023-06-14T09:45:15;15.10;99.90
12470;DHT22;36499;46.484;13.832;2023-06-14T09:47:48;15.20;99.90
12470;DHT22;36499;46.484;13.832;2023-06-14T09:50:15;15.40;99.90
12470;DHT22;36499;46.484;13.832;2023-06-14T09:52:43;15.50;99.90
12470;DHT22;36499;46.484;13.832;2023-06-14T09:55:15;15.60;99.90
12470;DHT22;36499;46.484;13.832;2023-06-14T09:57:45;15.70;99.90
12470;DHT22;36499;46.484;13.832;2023-06-14T10:00:15;15.90;99.90
12470;DHT22;36499;46.484;13.832;2023-06-14T10:02:47;16.00;99.90
12470;DHT22;36499;46.484;13.832;2023-06-14T10:05:19;16.20;99.90
12470;DHT22;36499;46.484;13.832;2023-06-14T10:07:53;16.30;99.90
12470;DHT22;36499;46.484;13.832;2023-06-14T10:10:27;16.30;99.90
12470;DHT22;36499;46.484;13.832;2023-06-14T10:12:54;16.30;99.90
12470;DHT22;36499;46.484;13.832;2023-06-14T10:15:35;16.40;99.90
12470;DHT22;36499;46.484;13.832;2023-06-14T10:18:14;16.40;99.90
12470;DHT22;36499;46.484;13.832;2023-06-14T10:20:58;16.50;99.90
12470;DHT22;36499;46.484;13.832;2023-06-14T10:23:37;16.50;99.90
12470;DHT22;36499;46.484;13.832;2023-06-14T10:26:08;16.60;99.90
12470;DHT22;36499;46.484;13.832;2023-06-14T10:28:56;16.70;99.90
12470;DHT22;36499;46.484;13.832;2023-06-14T10:31:40;16.70;99.90
12470;DHT22;36499;46.484;13.832;2023-06-14T10:34:08;16.70;99.90
12470;DHT22;36499;46.484;13.832;2023-06-14T10:36:36;16.70;99.90
12470;DHT22;36499;46.484;13.832;2023-06-14T10:39:05;16.70;99.90
12470;DHT22;36499;46.484;13.832;2023-06-14T10:41:37;16.70;99.90
12470;DHT22;36499;46.484;13.832;2023-06-14T10:44:33;16.70;99.90
12470;DHT22;36499;46.484;13.832;2023-06-14T10:47:09;16.80;99.90
12470;DHT22;36499;46.484;13.832;2023-06-14T10:49:39;16.90;99.90
12470;DHT22;36499;46.484;13.832;2023-06-14T10:52:11;17.00;99.90
12470;DHT22;36499;46.484;13.832;2023-06-14T10:55:04;17.10;99.90
12470;DHT22;36499;46.484;13.832;2023-06-14T10:57:37;17.10;99.90
12470;DHT22;36499;46.484;13.832;2023-06-14T11:00:06;17.10;99.90
12470;DHT22;36499;46.484;13.832;2023-06-14T11:06:13;17.00;99.90
12470;DHT22;36499;46.484;13.832;2023-06-14T11:12:01;17.00;99.90
12470;DHT22;36499;46.484;13.832;2023-06-14T11:14:31;17.00;99.90
12470;DHT22;36499;46.484;13.832;2023-06-14T11:16:59;17.00;99.90
12470;DHT22;36499;46.484;13.832;2023-06-14T11:19:26;17.00;99.90
12470;DHT22;36499;46.484;13.832;2023-06-14T11:21:54;17.00;99.90
12470;DHT22;36499;46.484;13.832;2023-06-14T11:24:21;17.00;99.90
12470;DHT22;36499;46.484;13.832;2023-06-14T11:26:49;17.00;99.90
12470;DHT22;36499;46.484;13.832;2023-06-14T11:29:16;17.00;99.90
12470;DHT22;36499;46.484;13.832;2023-06-14T11:31:45;16.90;99.90
12470;DHT22;36499;46.484;13.832;2023-06-14T11:34:12;16.90;99.90
12470;DHT22;36499;46.484;13.832;2023-06-14T11:36:40;16.90;99.90
12470;DHT22;36499;46.484;13.832;2023-06-14T11:39:07;16.90;99.90
12470;DHT22;36499;46.484;13.832;2023-06-14T11:41:39;16.80;99.90
12470;DHT22;36499;46.484;13.832;2023-06-14T11:44:07;16.90;99.90
12470;DHT22;36499;46.484;13.832;2023-06-14T11:46:35;17.00;99.90
12470;DHT22;36499;46.484;13.832;2023-06-14T11:49:04;17.00;99.90
12470;DHT22;36499;46.484;13.832;2023-06-14T11:51:33;17.30;99.90
12470;DHT22;36499;46.484;13.832;2023-06-14T11:54:01;17.30;99.90
12470;DHT22;36499;46.484;13.832;2023-06-14T11:56:29;17.30;99.90
12470;DHT22;36499;46.484;13.832;2023-06-14T11:58:57;17.30;99.90
12470;DHT22;36499;46.484;13.832;2023-06-14T12:01:24;17.20;99.90
12470;DHT22;36499;46.484;13.832;2023-06-14T12:03:53;17.30;99.90
12470;DHT22;36499;46.484;13.832;2023-06-14T12:06:30;17.40;99.90
12470;DHT22;36499;46.484;13.832;2023-06-14T12:09:03;17.70;99.90
12470;DHT22;36499;46.484;13.832;2023-06-14T12:11:34;18.20;99.90
12470;DHT22;36499;46.484;13.832;2023-06-14T12:14:03;18.60;99.90
12470;DHT22;36499;46.484;13.832;2023-06-14T12:16:32;18.70;99.90
12470;DHT22;36499;46.484;13.832;2023-06-14T12:19:08;18.70;99.90
12470;DHT22;36499;46.484;13.832;2023-06-14T12:21:41;18.80;99.90
12470;DHT22;36499;46.484;13.832;2023-06-14T12:24:11;19.10;99.90
12470;DHT22;36499;46.484;13.832;2023-06-14T12:26:39;19.30;99.90
12470;DHT22;36499;46.484;13.832;2023-06-14T12:29:07;19.70;99.90
12470;DHT22;36499;46.484;13.832;2023-06-14T12:31:34;19.90;99.90
12470;DHT22;36499;46.484;13.832;2023-06-14T12:34:01;20.00;99.90
12470;DHT22;36499;46.484;13.832;2023-06-14T12:36:29;20.20;99.90
12470;DHT22;36499;46.484;13.832;2023-06-14T12:38:58;20.20;99.90
12470;DHT22;36499;46.484;13.832;2023-06-14T12:41:25;20.30;99.90
12470;DHT22;36499;46.484;13.832;2023-06-14T12:43:52;20.40;99.90
12470;DHT22;36499;46.484;13.832;2023-06-14T12:46:19;20.50;99.90
12470;DHT22;36499;46.484;13.832;2023-06-14T12:48:47;20.60;99.90
12470;DHT22;36499;46.484;13.832;2023-06-14T12:51:14;20.80;99.90
12470;DHT22;36499;46.484;13.832;2023-06-14T12:53:41;20.80;99.90
12470;DHT22;36499;46.484;13.832;2023-06-14T12:56:10;20.80;99.90
12470;DHT22;36499;46.484;13.832;2023-06-14T12:58:37;20.90;99.90
12470;DHT22;36499;46.484;13.832;2023-06-14T13:01:05;21.00;99.90
12470;DHT22;36499;46.484;13.832;2023-06-14T13:03:32;20.90;99.90
12470;DHT22;36499;46.484;13.832;2023-06-14T13:05:59;21.00;99.90
12470;DHT22;36499;46.484;13.832;2023-06-14T13:08:27;21.10;99.90
12470;DHT22;36499;46.484;13.832;2023-06-14T13:10:54;21.30;99.90
12470;DHT22;36499;46.484;13.832;2023-06-14T13:13:23;21.50;99.90
12470;DHT22;36499;46.484;13.832;2023-06-14T13:15:50;21.60;99.90
12470;DHT22;36499;46.484;13.832;2023-06-14T13:18:17;21.60;99.90
12470;DHT22;36499;46.484;13.832;2023-06-14T13:20:45;21.60;99.90
12470;DHT22;36499;46.484;13.832;2023-06-14T13:23:13;21.60;99.90
12470;DHT22;36499;46.484;13.832;2023-06-14T13:25:40;21.70;99.90
12470;DHT22;36499;46.484;13.832;2023-06-14T13:28:07;21.80;99.90
12470;DHT22;36499;46.484;13.832;2023-06-14T13:30:36;21.70;99.90
12470;DHT22;36499;46.484;13.832;2023-06-14T13:33:03;21.60;99.90
12470;DHT22;36499;46.484;13.832;2023-06-14T13:35:30;21.70;99.90
12470;DHT22;36499;46.484;13.832;2023-06-14T13:37:58;21.70;99.90
12470;DHT22;36499;46.484;13.832;2023-06-14T13:40:25;21.90;99.90
12470;DHT22;36499;46.484;13.832;2023-06-14T13:42:52;22.00;99.90
12470;DHT22;36499;46.484;13.832;2023-06-14T13:45:19;22.00;99.90
12470;DHT22;36499;46.484;13.832;2023-06-14T13:47:47;22.00;99.90
12470;DHT22;36499;46.484;13.832;2023-06-14T13:50:15;22.10;99.90
12470;DHT22;36499;46.484;13.832;2023-06-14T13:52:42;22.00;99.90
12470;DHT22;36499;46.484;13.832;2023-06-14T13:55:09;22.20;99.90
12470;DHT22;36499;46.484;13.832;2023-06-14T13:57:36;22.40;99.90
12470;DHT22;36499;46.484;13.832;2023-06-14T14:00:04;22.50;99.90
12470;DHT22;36499;46.484;13.832;2023-06-14T14:02:34;22.50;99.90
12470;DHT22;36499;46.484;13.832;2023-06-14T14:05:03;22.50;99.90
12470;DHT22;36499;46.484;13.832;2023-06-14T14:07:30;22.50;99.90
12470;DHT22;36499;46.484;13.832;2023-06-14T14:09:57;22.50;99.90
12470;DHT22;36499;46.484;13.832;2023-06-14T14:12:24;22.70;99.90
12470;DHT22;36499;46.484;13.832;2023-06-14T14:14:51;22.60;99.90
12470;DHT22;36499;46.484;13.832;2023-06-14T14:17:19;22.70;99.90
12470;DHT22;36499;46.484;13.832;2023-06-14T14:19:47;22.60;99.90
12470;DHT22;36499;46.484;13.832;2023-06-14T14:22:15;22.30;99.90
12470;DHT22;36499;46.484;13.832;2023-06-14T14:24:42;21.80;99.90
12470;DHT22;36499;46.484;13.832;2023-06-14T14:27:10;21.60;99.90
12470;DHT22;36499;46.484;13.832;2023-06-14T14:29:37;21.40;99.90
12470;DHT22;36499;46.484;13.832;2023-06-14T14:32:05;21.30;99.90
12470;DHT22;36499;46.484;13.832;2023-06-14T14:34:32;21.00;99.90
12470;DHT22;36499;46.484;13.832;2023-06-14T14:36:59;20.70;99.90
12470;DHT22;36499;46.484;13.832;2023-06-14T14:39:28;20.50;99.90
12470;DHT22;36499;46.484;13.832;2023-06-14T14:41:55;20.30;99.90
12470;DHT22;36499;46.484;13.832;2023-06-14T14:44:22;20.10;99.90
12470;DHT22;36499;46.484;13.832;2023-06-14T14:46:49;20.00;99.90
12470;DHT22;36499;46.484;13.832;2023-06-14T14:49:16;19.90;99.90
12470;DHT22;36499;46.484;13.832;2023-06-14T14:51:43;19.80;99.90
12470;DHT22;36499;46.484;13.832;2023-06-14T14:54:10;19.70;99.90
12470;DHT22;36499;46.484;13.832;2023-06-14T14:56:39;19.60;99.90
12470;DHT22;36499;46.484;13.832;2023-06-14T14:59:06;19.40;99.90
12470;DHT22;36499;46.484;13.832;2023-06-14T15:01:33;19.40;99.90
12470;DHT22;36499;46.484;13.832;2023-06-14T15:04:00;19.40;99.90
12470;DHT22;36499;46.484;13.832;2023-06-14T15:06:27;19.30;99.90
12470;DHT22;36499;46.484;13.832;2023-06-14T15:08:54;19.30;99.90
12470;DHT22;36499;46.484;13.832;2023-06-14T15:11:21;19.20;99.90
12470;DHT22;36499;46.484;13.832;2023-06-14T15:13:50;19.20;99.90
12470;DHT22;36499;46.484;13.832;2023-06-14T15:16:17;19.10;99.90
12470;DHT22;36499;46.484;13.832;2023-06-14T15:18:44;19.00;99.90
12470;DHT22;36499;46.484;13.832;2023-06-14T15:21:11;18.90;99.90
12470;DHT22;36499;46.484;13.832;2023-06-14T15:23:38;18.80;99.90
12470;DHT22;36499;46.484;13.832;2023-06-14T15:26:05;18.70;99.90
12470;DHT22;36499;46.484;13.832;2023-06-14T15:28:32;18.70;99.90
12470;DHT22;36499;46.484;13.832;2023-06-14T15:31:01;18.50;99.90